createdAt,value
2022-09-17T00:00:13.263Z,6.96
2022-09-17T00:01:13.451Z,3.84
2022-09-17T00:02:23.452Z,6.80
2022-09-17T00:03:13.894Z,5.36
2022-09-17T00:04:13.632Z,7.00
2022-09-17T00:05:13.763Z,6.04
2022-09-17T00:06:20.107Z,6.64
2022-09-17T00:07:13.856Z,6.72
2022-09-17T00:08:13.857Z,6.80
2022-09-17T00:09:14.256Z,7.84
2022-09-17T00:10:13.217Z,6.16
2022-09-17T00:11:13.335Z,6.32
2022-09-17T00:12:23.200Z,9.07
2022-09-17T00:14:13.637Z,6.91
2022-09-17T00:15:13.849Z,9.00
2022-09-17T00:16:14.252Z,7.72
2022-09-17T00:17:13.186Z,5.76
2022-09-17T00:18:13.188Z,7.00
2022-09-17T00:19:13.541Z,7.68
2022-09-17T00:20:13.593Z,4.28
2022-09-17T00:21:13.661Z,5.04
2022-09-17T00:22:13.527Z,7.16
2022-09-17T00:23:13.578Z,7.44
2022-09-17T00:24:14.194Z,7.36
2022-09-17T00:25:13.241Z,7.32
2022-09-17T00:26:13.334Z,6.44
2022-09-17T00:27:13.724Z,7.40
2022-09-17T00:28:18.854Z,7.00
2022-09-17T00:29:13.945Z,7.40
2022-09-17T00:30:13.033Z,10.12
2022-09-17T00:31:13.293Z,10.56
2022-09-17T00:32:13.536Z,7.24
2022-09-17T00:33:13.845Z,5.52
2022-09-17T00:34:13.939Z,6.80
2022-09-17T00:35:12.977Z,6.48
2022-09-17T00:36:13.147Z,8.52
2022-09-17T00:37:13.001Z,8.60
2022-09-17T00:38:13.070Z,8.56
2022-09-17T00:39:13.268Z,8.60
2022-09-17T00:40:13.224Z,6.72
2022-09-17T00:41:13.345Z,7.36
2022-09-17T00:42:13.607Z,9.36
2022-09-17T00:43:13.483Z,8.56
2022-09-17T00:44:13.578Z,6.40
2022-09-17T00:45:13.582Z,7.12
2022-09-17T00:46:13.653Z,6.72
2022-09-17T00:47:13.905Z,5.36
2022-09-17T00:48:12.862Z,3.00
2022-09-17T00:49:14.292Z,5.32
2022-09-17T00:50:13.361Z,6.88
2022-09-17T00:51:13.408Z,7.80
2022-09-17T00:52:13.625Z,5.92
2022-09-17T00:53:13.558Z,3.28
2022-09-17T00:54:13.642Z,4.80
2022-09-17T00:55:13.587Z,6.24
2022-09-17T00:56:13.852Z,5.88
2022-09-17T00:57:14.378Z,6.24
2022-09-17T00:58:13.320Z,7.60
2022-09-17T00:59:13.291Z,4.36
2022-09-17T01:00:13.448Z,3.08
2022-09-17T01:01:13.750Z,7.36
2022-09-17T01:02:13.941Z,9.08
2022-09-17T01:03:12.896Z,5.08
2022-09-17T01:04:13.265Z,6.84
2022-09-17T01:05:13.394Z,6.44
2022-09-17T01:06:13.997Z,3.36
2022-09-17T01:07:13.120Z,4.36
2022-09-17T01:08:13.322Z,4.48
2022-09-17T01:09:13.429Z,5.76
2022-09-17T01:10:13.580Z,4.52
2022-09-17T01:11:13.614Z,4.04
2022-09-17T01:12:23.942Z,4.88
2022-09-17T01:13:12.810Z,3.76
2022-09-17T01:14:13.847Z,4.40
2022-09-17T01:15:14.258Z,4.92
2022-09-17T01:16:13.250Z,3.12
2022-09-17T01:17:13.653Z,4.24
2022-09-17T01:18:13.632Z,4.52
2022-09-17T01:19:13.750Z,4.40
2022-09-17T01:20:13.925Z,3.40
2022-09-17T01:21:12.933Z,4.76
2022-09-17T01:22:12.986Z,4.44
2022-09-17T01:23:12.914Z,8.32
2022-09-17T01:24:12.962Z,6.24
2022-09-17T01:25:12.947Z,6.24
2022-09-17T01:26:13.092Z,6.72
2022-09-17T01:27:13.232Z,5.20
2022-09-17T01:28:13.291Z,8.24
2022-09-17T01:29:13.465Z,4.12
2022-09-17T01:30:13.642Z,4.16
2022-09-17T01:31:13.646Z,5.08
2022-09-17T01:32:13.786Z,4.68
2022-09-17T01:33:14.282Z,4.92
2022-09-17T01:34:13.369Z,4.84
2022-09-17T01:35:13.261Z,4.56
2022-09-17T01:36:13.355Z,3.96
2022-09-17T01:37:13.758Z,3.84
2022-09-17T01:38:14.035Z,5.68
2022-09-17T01:39:13.062Z,4.64
2022-09-17T01:40:13.384Z,3.68
2022-09-17T01:41:13.442Z,2.68
2022-09-17T01:42:13.334Z,3.40
2022-09-17T01:43:13.755Z,3.68
2022-09-17T01:44:13.894Z,7.44
2022-09-17T01:45:12.877Z,8.12
2022-09-17T01:46:13.913Z,5.00
2022-09-17T01:47:14.281Z,5.92
2022-09-17T01:48:14.091Z,9.60
2022-09-17T01:49:13.211Z,8.09
2022-09-17T01:50:13.089Z,6.82
2022-09-17T01:51:13.079Z,8.24
2022-09-17T01:52:13.121Z,5.08
2022-09-17T01:53:13.423Z,5.72
2022-09-17T01:54:13.399Z,6.60
2022-09-17T01:55:13.464Z,8.32
2022-09-17T01:56:18.512Z,4.80
2022-09-17T01:57:13.484Z,4.32
2022-09-17T01:58:13.523Z,6.28
2022-09-17T01:59:13.865Z,7.84
2022-09-17T02:00:14.010Z,4.88
2022-09-17T02:01:13.322Z,6.16
2022-09-17T02:02:13.657Z,7.24
2022-09-17T02:03:13.689Z,4.96
2022-09-17T02:04:14.103Z,7.48
2022-09-17T02:05:13.077Z,6.32
2022-09-17T02:06:12.988Z,5.28
2022-09-17T02:07:12.962Z,5.44
2022-09-17T02:08:12.868Z,5.36
2022-09-17T02:09:15.459Z,4.20
2022-09-17T02:10:13.676Z,6.64
2022-09-17T02:11:13.737Z,7.20
2022-09-17T02:12:13.614Z,7.80
2022-09-17T02:13:13.687Z,4.20
2022-09-17T02:14:13.743Z,4.16
2022-09-17T02:15:13.613Z,5.52
2022-09-17T02:16:13.472Z,5.00
2022-09-17T02:17:13.396Z,4.36
2022-09-17T02:18:13.413Z,2.76
2022-09-17T02:19:23.400Z,5.24
2022-09-17T02:20:13.310Z,2.96
2022-09-17T02:21:13.128Z,4.12
2022-09-17T02:22:12.957Z,3.84
2022-09-17T02:23:12.780Z,5.80
2022-09-17T02:24:13.790Z,4.16
2022-09-17T02:25:13.977Z,3.00
2022-09-17T02:26:12.945Z,4.52
2022-09-17T02:27:13.224Z,3.16
2022-09-17T02:28:18.354Z,3.79
2022-09-17T02:29:13.331Z,5.12
2022-09-17T02:30:13.484Z,3.36
2022-09-17T02:31:13.832Z,2.80
2022-09-17T02:32:12.977Z,3.80
2022-09-17T02:33:12.855Z,3.08
2022-09-17T02:34:13.803Z,4.64
2022-09-17T02:35:13.830Z,3.56
2022-09-17T02:36:24.212Z,3.24
2022-09-17T02:37:13.290Z,3.92
2022-09-17T02:38:13.337Z,3.28
2022-09-17T02:39:13.361Z,3.84
2022-09-17T02:40:13.308Z,4.64
2022-09-17T02:41:13.253Z,3.40
2022-09-17T02:42:13.356Z,2.92
2022-09-17T02:43:13.294Z,3.12
2022-09-17T02:44:13.296Z,2.80
2022-09-17T02:45:13.259Z,3.32
2022-09-17T02:46:13.491Z,2.60
2022-09-17T02:47:23.969Z,2.26
2022-09-17T02:48:12.867Z,3.72
2022-09-17T02:49:13.761Z,4.92
2022-09-17T02:50:13.719Z,4.48
2022-09-17T02:51:13.823Z,3.72
2022-09-17T02:52:19.117Z,2.04
2022-09-17T02:53:13.416Z,2.91
2022-09-17T02:54:23.700Z,2.94
2022-09-17T02:55:13.629Z,3.84
2022-09-17T02:56:13.613Z,2.92
2022-09-17T02:57:13.600Z,3.36
2022-09-17T02:58:34.147Z,4.12
2022-09-17T02:59:12.976Z,3.36
2022-09-17T03:00:13.187Z,2.36
2022-09-17T03:01:13.218Z,3.64
2022-09-17T03:02:15.083Z,3.48
2022-09-17T03:03:13.137Z,3.84
2022-09-17T03:04:13.283Z,3.24
2022-09-17T03:05:13.151Z,2.88
2022-09-17T03:06:23.026Z,3.20
2022-09-17T03:07:13.400Z,3.08
2022-09-17T03:08:14.987Z,3.32
2022-09-17T03:09:13.245Z,4.96
2022-09-17T03:10:13.291Z,4.44
2022-09-17T03:11:13.180Z,5.04
2022-09-17T03:12:19.062Z,6.62
2022-09-17T03:13:13.172Z,4.04
2022-09-17T03:14:13.078Z,1.92
2022-09-17T03:15:18.247Z,2.44
2022-09-17T03:16:18.286Z,3.24
2022-09-17T03:17:13.276Z,2.80
2022-09-17T03:18:13.264Z,1.48
2022-09-17T03:19:13.313Z,5.28
2022-09-17T03:20:13.488Z,4.08
2022-09-17T03:21:13.301Z,6.12
2022-09-17T03:22:18.304Z,4.80
2022-09-17T03:23:13.122Z,3.40
2022-09-17T03:24:13.037Z,3.24
2022-09-17T03:25:13.024Z,5.40
2022-09-17T03:26:12.948Z,6.72
2022-09-17T03:27:13.017Z,5.84
2022-09-17T03:28:18.615Z,3.36
2022-09-17T03:29:13.640Z,4.48
2022-09-17T03:30:13.785Z,4.48
2022-09-17T03:31:13.848Z,8.92
2022-09-17T03:32:14.530Z,10.52
2022-09-17T03:33:13.799Z,6.44
2022-09-17T03:34:13.935Z,3.64
2022-09-17T03:35:12.850Z,5.52
2022-09-17T03:36:13.906Z,5.52
2022-09-17T03:37:12.893Z,4.56
2022-09-17T03:38:17.906Z,8.48
2022-09-17T03:39:13.037Z,6.82
2022-09-17T03:40:13.336Z,5.24
2022-09-17T03:41:13.370Z,1.76
2022-09-17T03:42:13.587Z,2.48
2022-09-17T03:43:13.683Z,3.72
2022-09-17T03:44:13.599Z,2.84
2022-09-17T03:45:13.604Z,4.48
2022-09-17T03:46:13.649Z,6.16
2022-09-17T03:47:13.561Z,10.24
2022-09-17T03:48:13.591Z,6.12
2022-09-17T03:49:13.552Z,5.72
2022-09-17T03:50:13.598Z,6.56
2022-09-17T03:51:13.656Z,3.72
2022-09-17T03:52:13.755Z,5.36
2022-09-17T03:53:13.888Z,6.64
2022-09-17T03:54:19.174Z,6.68
2022-09-17T03:55:18.771Z,4.64
2022-09-17T03:56:13.875Z,2.84
2022-09-17T03:57:13.810Z,2.68
2022-09-17T03:58:13.935Z,2.80
2022-09-17T03:59:18.008Z,2.92
2022-09-17T04:00:12.965Z,4.28
2022-09-17T04:01:12.900Z,4.32
2022-09-17T04:02:13.651Z,3.52
2022-09-17T04:03:14.540Z,3.52
2022-09-17T04:04:14.073Z,3.44
2022-09-17T04:05:13.033Z,4.60
2022-09-17T04:06:13.173Z,2.72
2022-09-17T04:07:13.108Z,1.64
2022-09-17T04:08:13.513Z,2.20
2022-09-17T04:09:13.429Z,3.16
2022-09-17T04:10:13.680Z,3.44
2022-09-17T04:11:18.797Z,5.04
2022-09-17T04:12:13.994Z,5.35
2022-09-17T04:13:13.242Z,4.80
2022-09-17T04:14:13.177Z,3.72
2022-09-17T04:15:13.370Z,3.40
2022-09-17T04:16:13.599Z,4.24
2022-09-17T04:17:23.810Z,3.68
2022-09-17T04:18:13.701Z,5.45
2022-09-17T04:19:13.791Z,3.12
2022-09-17T04:20:13.704Z,4.60
2022-09-17T04:21:17.877Z,3.84
2022-09-17T04:22:13.881Z,4.32
2022-09-17T04:23:14.018Z,5.44
2022-09-17T04:24:12.990Z,2.76
2022-09-17T04:25:13.103Z,2.44
2022-09-17T04:26:13.128Z,4.00
2022-09-17T04:27:13.239Z,2.56
2022-09-17T04:28:13.129Z,3.04
2022-09-17T04:29:13.200Z,2.56
2022-09-17T04:30:13.105Z,3.00
2022-09-17T04:31:13.089Z,6.24
2022-09-17T04:32:13.306Z,7.12
2022-09-17T04:33:13.514Z,7.56
2022-09-17T04:34:13.475Z,9.84
2022-09-17T04:35:13.615Z,4.60
2022-09-17T04:36:13.559Z,5.88
2022-09-17T04:37:13.646Z,4.76
2022-09-17T04:38:13.535Z,6.68
2022-09-17T04:39:13.519Z,6.04
2022-09-17T04:40:13.743Z,6.52
2022-09-17T04:41:14.888Z,3.68
2022-09-17T04:42:41.429Z,9.36
2022-09-17T04:43:13.522Z,3.12
2022-09-17T04:44:13.965Z,4.80
2022-09-17T04:45:13.298Z,6.40
2022-09-17T04:46:13.315Z,2.88
2022-09-17T04:47:13.210Z,5.16
2022-09-17T04:48:13.250Z,3.32
2022-09-17T04:49:13.337Z,5.28
2022-09-17T04:50:23.246Z,6.96
2022-09-17T04:51:13.353Z,5.60
2022-09-17T04:52:13.448Z,5.96
2022-09-17T04:53:13.338Z,11.36
2022-09-17T04:54:13.475Z,9.16
2022-09-17T04:55:13.619Z,5.68
2022-09-17T04:56:13.588Z,8.32
2022-09-17T04:57:14.179Z,5.64
2022-09-17T04:58:13.255Z,5.28
2022-09-17T04:59:13.389Z,4.16
2022-09-17T05:00:13.894Z,7.48
2022-09-17T05:01:12.812Z,6.04
2022-09-17T05:02:14.707Z,3.40
2022-09-17T05:03:13.730Z,3.20
2022-09-17T05:04:13.956Z,9.60
2022-09-17T05:05:18.020Z,3.64
2022-09-17T05:06:13.592Z,6.12
2022-09-17T05:07:14.144Z,7.12
2022-09-17T05:08:18.374Z,4.44
2022-09-17T05:09:13.496Z,7.04
2022-09-17T05:10:13.520Z,6.40
2022-09-17T05:11:14.085Z,11.88
2022-09-17T05:12:13.162Z,8.56
2022-09-17T05:13:13.178Z,10.04
2022-09-17T05:14:13.092Z,4.60
2022-09-17T05:15:13.201Z,8.20
2022-09-17T05:16:13.695Z,4.20
2022-09-17T05:17:14.039Z,3.52
2022-09-17T05:18:13.755Z,5.72
2022-09-17T05:19:13.847Z,7.48
2022-09-17T05:20:13.954Z,4.72
2022-09-17T05:21:13.254Z,6.88
2022-09-17T05:22:21.508Z,7.16
2022-09-17T05:23:13.868Z,6.44
2022-09-17T05:24:13.958Z,7.84
2022-09-17T05:25:13.286Z,4.68
2022-09-17T05:26:13.589Z,9.12
2022-09-17T05:27:13.557Z,7.20
2022-09-17T05:28:13.749Z,7.44
2022-09-17T05:29:14.049Z,6.32
2022-09-17T05:30:13.331Z,8.56
2022-09-17T05:31:13.404Z,5.36
2022-09-17T05:32:13.598Z,11.80
2022-09-17T05:33:13.707Z,7.76
2022-09-17T05:34:18.867Z,10.04
2022-09-17T05:35:14.052Z,5.60
2022-09-17T05:36:13.282Z,12.24
2022-09-17T05:37:13.385Z,10.60
2022-09-17T05:38:13.322Z,10.52
2022-09-17T05:39:13.453Z,4.72
2022-09-17T05:40:13.499Z,5.68
2022-09-17T05:41:13.823Z,7.80
2022-09-17T05:42:13.782Z,9.24
2022-09-17T05:43:13.714Z,8.40
2022-09-17T05:44:17.875Z,9.20
2022-09-17T05:45:13.593Z,9.84
2022-09-17T05:46:13.747Z,11.24
2022-09-17T05:47:13.968Z,9.16
2022-09-17T05:48:12.967Z,10.00
2022-09-17T05:49:13.443Z,10.04
2022-09-17T05:50:13.440Z,6.24
2022-09-17T05:51:13.825Z,5.08
2022-09-17T05:52:14.172Z,10.00
2022-09-17T05:53:13.159Z,9.96
2022-09-17T05:54:13.510Z,6.56
2022-09-17T05:55:13.537Z,5.48
2022-09-17T05:56:14.350Z,11.48
2022-09-17T05:57:13.486Z,8.72
2022-09-17T05:58:13.562Z,9.52
2022-09-17T05:59:13.619Z,13.16
2022-09-17T06:00:13.509Z,8.20
2022-09-17T06:01:13.539Z,6.56
2022-09-17T06:02:14.141Z,13.04
2022-09-17T06:03:13.378Z,8.96
2022-09-17T06:04:13.618Z,7.20
2022-09-17T06:05:13.894Z,14.60
2022-09-17T06:06:17.804Z,11.16
2022-09-17T06:07:13.811Z,12.24
2022-09-17T06:08:13.896Z,11.96
2022-09-17T06:09:12.767Z,14.00
2022-09-17T06:10:13.666Z,8.60
2022-09-17T06:11:13.810Z,11.96
2022-09-17T06:12:13.961Z,15.56
2022-09-17T06:13:13.133Z,13.60
2022-09-17T06:14:12.902Z,7.40
2022-09-17T06:15:13.527Z,10.12
2022-09-17T06:16:13.485Z,10.48
2022-09-17T06:17:13.506Z,12.56
2022-09-17T06:18:13.649Z,12.12
2022-09-17T06:19:13.714Z,15.20
2022-09-17T06:20:13.786Z,8.80
2022-09-17T06:21:13.857Z,7.60
2022-09-17T06:22:14.074Z,9.32
2022-09-17T06:23:15.953Z,12.44
2022-09-17T06:24:13.080Z,9.36
2022-09-17T06:25:13.228Z,9.04
2022-09-17T06:26:13.127Z,11.60
2022-09-17T06:27:13.402Z,7.16
2022-09-17T06:28:13.234Z,5.24
2022-09-17T06:29:13.522Z,9.64
2022-09-17T06:30:13.744Z,7.20
2022-09-17T06:31:13.760Z,4.44
2022-09-17T06:32:13.858Z,7.08
2022-09-17T06:33:13.855Z,9.40
2022-09-17T06:34:14.139Z,11.68
2022-09-17T06:35:13.261Z,9.40
2022-09-17T06:36:14.705Z,7.20
2022-09-17T06:37:12.993Z,4.04
2022-09-17T06:38:13.329Z,7.52
2022-09-17T06:39:13.360Z,7.36
2022-09-17T06:40:13.380Z,13.72
2022-09-17T06:41:13.445Z,10.56
2022-09-17T06:42:18.607Z,11.60
2022-09-17T06:43:18.740Z,10.12
2022-09-17T06:44:13.592Z,8.40
2022-09-17T06:45:16.733Z,8.84
2022-09-17T06:46:12.978Z,13.80
2022-09-17T06:47:13.278Z,15.60
2022-09-17T06:48:13.660Z,19.48
2022-09-17T06:49:13.581Z,12.92
2022-09-17T06:50:13.800Z,6.36
2022-09-17T06:51:14.077Z,9.56
2022-09-17T06:52:12.950Z,10.08
2022-09-17T06:53:13.048Z,16.56
2022-09-17T06:54:13.394Z,11.48
2022-09-17T06:55:13.392Z,9.72
2022-09-17T06:56:13.455Z,6.32
2022-09-17T06:57:13.601Z,9.08
2022-09-17T06:58:13.552Z,3.08
2022-09-17T06:59:14.064Z,5.28
2022-09-17T07:00:12.900Z,8.08
2022-09-17T07:01:13.229Z,9.04
2022-09-17T07:02:13.283Z,13.36
2022-09-17T07:03:13.545Z,7.68
2022-09-17T07:04:14.068Z,4.04
2022-09-17T07:05:13.125Z,4.52
2022-09-17T07:06:13.572Z,10.52
2022-09-17T07:07:13.577Z,12.56
2022-09-17T07:08:13.519Z,8.28
2022-09-17T07:09:13.379Z,8.08
2022-09-17T07:10:13.296Z,8.92
2022-09-17T07:11:13.463Z,12.28
2022-09-17T07:12:13.545Z,7.32
2022-09-17T07:13:13.589Z,8.40
2022-09-17T07:14:13.555Z,10.88
2022-09-17T07:15:13.565Z,8.57
2022-09-17T07:16:13.532Z,10.52
2022-09-17T07:17:13.578Z,10.76
2022-09-17T07:18:13.815Z,6.80
2022-09-17T07:19:18.774Z,7.76
2022-09-17T07:20:13.667Z,6.28
2022-09-17T07:21:13.589Z,7.64
2022-09-17T07:22:13.510Z,7.76
2022-09-17T07:23:14.643Z,5.52
2022-09-17T07:24:14.163Z,13.68
2022-09-17T07:25:13.168Z,8.84
2022-09-17T07:26:13.483Z,12.12
2022-09-17T07:27:13.861Z,12.36
2022-09-17T07:28:15.158Z,10.32
2022-09-17T07:29:13.284Z,11.84
2022-09-17T07:30:13.879Z,12.56
2022-09-17T07:31:16.338Z,9.04
2022-09-17T07:32:12.817Z,14.64
2022-09-17T07:33:14.440Z,10.64
2022-09-17T07:34:13.854Z,8.52
2022-09-17T07:35:13.745Z,10.28
2022-09-17T07:36:13.774Z,9.24
2022-09-17T07:37:13.883Z,4.52
2022-09-17T07:38:14.702Z,4.68
2022-09-17T07:39:14.400Z,7.48
2022-09-17T07:40:13.699Z,9.92
2022-09-17T07:41:14.124Z,8.76
2022-09-17T07:42:13.451Z,10.84
2022-09-17T07:43:13.591Z,8.52
2022-09-17T07:44:13.987Z,8.84
2022-09-17T07:45:13.096Z,10.32
2022-09-17T07:46:13.366Z,16.88
2022-09-17T07:47:13.590Z,11.52
2022-09-17T07:48:13.497Z,7.68
2022-09-17T07:49:13.942Z,14.56
2022-09-17T07:50:13.151Z,10.84
2022-09-17T07:51:13.204Z,8.84
2022-09-17T07:52:13.687Z,8.24
2022-09-17T07:53:13.570Z,12.60
2022-09-17T07:54:13.561Z,8.40
2022-09-17T07:55:13.644Z,9.68
2022-09-17T07:56:13.984Z,5.52
2022-09-17T07:57:13.150Z,3.60
2022-09-17T07:58:13.467Z,9.72
2022-09-17T07:59:13.803Z,6.48
2022-09-17T08:00:13.064Z,8.96
2022-09-17T08:01:13.318Z,6.64
2022-09-17T08:02:13.743Z,5.76
2022-09-17T08:03:13.225Z,8.52
2022-09-17T08:04:13.807Z,10.44
2022-09-17T08:05:14.017Z,12.44
2022-09-17T08:06:13.315Z,11.56
2022-09-17T08:07:13.425Z,18.12
2022-09-17T08:08:14.895Z,9.80
2022-09-17T08:09:13.884Z,7.92
2022-09-17T08:10:13.991Z,13.24
2022-09-17T08:11:13.243Z,8.48
2022-09-17T08:12:13.248Z,7.00
2022-09-17T08:13:13.325Z,7.12
2022-09-17T08:14:13.673Z,12.36
2022-09-17T08:15:13.575Z,10.24
2022-09-17T08:16:13.751Z,10.72
2022-09-17T08:17:18.995Z,7.48
2022-09-17T08:18:13.843Z,8.48
2022-09-17T08:19:13.885Z,9.48
2022-09-17T08:20:14.276Z,7.92
2022-09-17T08:21:13.234Z,8.48
2022-09-17T08:22:13.157Z,4.72
2022-09-17T08:23:13.056Z,5.04
2022-09-17T08:24:13.990Z,3.92
2022-09-17T08:25:13.035Z,9.36
2022-09-17T08:26:18.395Z,9.00
2022-09-17T08:27:13.334Z,9.32
2022-09-17T08:28:13.535Z,12.76
2022-09-17T08:29:13.401Z,12.00
2022-09-17T08:30:13.530Z,7.48
2022-09-17T08:31:13.460Z,2.48
2022-09-17T08:32:13.654Z,7.24
2022-09-17T08:33:13.599Z,5.08
2022-09-17T08:34:13.405Z,9.76
2022-09-17T08:35:13.549Z,9.44
2022-09-17T08:36:13.896Z,7.08
2022-09-17T08:37:13.096Z,6.80
2022-09-17T08:38:13.157Z,7.44
2022-09-17T08:39:13.569Z,15.88
2022-09-17T08:40:13.873Z,15.32
2022-09-17T08:41:12.858Z,14.72
2022-09-17T08:42:14.437Z,9.80
2022-09-17T08:43:13.368Z,14.04
2022-09-17T08:44:13.515Z,17.96
2022-09-17T08:45:13.513Z,10.96
2022-09-17T08:46:13.535Z,16.48
2022-09-17T08:47:13.765Z,19.96
2022-09-17T08:48:14.347Z,15.80
2022-09-17T08:49:13.270Z,10.72
2022-09-17T08:50:13.345Z,14.72
2022-09-17T08:51:13.683Z,20.92
2022-09-17T08:52:13.867Z,13.12
2022-09-17T08:53:13.951Z,10.08
2022-09-17T08:54:13.041Z,7.72
2022-09-17T08:55:13.208Z,9.96
2022-09-17T08:56:13.375Z,8.08
2022-09-17T08:57:13.690Z,19.88
2022-09-17T08:58:14.053Z,16.32
2022-09-17T08:59:13.200Z,12.28
2022-09-17T09:00:13.424Z,14.88
2022-09-17T09:01:13.629Z,29.68
2022-09-17T09:02:14.122Z,28.52
2022-09-17T09:03:13.340Z,17.96
2022-09-17T09:04:13.589Z,23.16
2022-09-17T09:05:13.514Z,24.24
2022-09-17T09:06:13.426Z,29.24
2022-09-17T09:07:13.391Z,18.76
2022-09-17T09:08:13.427Z,12.00
2022-09-17T09:09:13.542Z,13.60
2022-09-17T09:10:13.687Z,19.20
2022-09-17T09:11:13.630Z,16.00
2022-09-17T09:12:13.925Z,16.88
2022-09-17T09:13:13.122Z,16.08
2022-09-17T09:14:13.126Z,19.76
2022-09-17T09:15:13.058Z,12.08
2022-09-17T09:16:13.146Z,8.72
2022-09-17T09:17:13.271Z,6.56
2022-09-17T09:18:13.094Z,14.64
2022-09-17T09:19:13.523Z,17.97
2022-09-17T09:20:13.643Z,23.20
2022-09-17T09:21:13.675Z,17.88
2022-09-17T09:22:13.597Z,12.40
2022-09-17T09:23:13.781Z,21.24
2022-09-17T09:24:13.913Z,18.16
2022-09-17T09:25:12.834Z,20.32
2022-09-17T09:26:13.724Z,24.00
2022-09-17T09:27:13.686Z,24.92
2022-09-17T09:28:14.739Z,12.28
2022-09-17T09:29:14.998Z,22.80
2022-09-17T09:30:13.140Z,17.84
2022-09-17T09:31:13.186Z,18.52
2022-09-17T09:32:16.520Z,7.64
2022-09-17T09:33:13.516Z,17.00
2022-09-17T09:34:13.454Z,16.88
2022-09-17T09:35:13.376Z,20.32
2022-09-17T09:36:13.590Z,20.44
2022-09-17T09:37:13.902Z,9.68
2022-09-17T09:38:12.825Z,22.88
2022-09-17T09:39:14.097Z,9.76
2022-09-17T09:40:13.220Z,16.64
2022-09-17T09:41:13.283Z,12.28
2022-09-17T09:42:13.307Z,24.64
2022-09-17T09:43:13.242Z,16.16
2022-09-17T09:44:13.548Z,24.84
2022-09-17T09:45:13.649Z,17.24
2022-09-17T09:46:14.751Z,8.04
2022-09-17T09:47:13.737Z,20.76
2022-09-17T09:48:13.946Z,21.56
2022-09-17T09:49:13.959Z,20.60
2022-09-17T09:50:13.683Z,20.32
2022-09-17T09:51:13.566Z,14.24
2022-09-17T09:52:13.645Z,15.84
2022-09-17T09:53:13.514Z,6.44
2022-09-17T09:54:13.459Z,5.64
2022-09-17T09:55:13.489Z,11.64
2022-09-17T09:56:13.467Z,16.80
2022-09-17T09:57:13.587Z,10.16
2022-09-17T09:58:13.659Z,7.80
2022-09-17T09:59:14.176Z,23.28
2022-09-17T10:00:13.424Z,18.48
2022-09-17T10:01:13.532Z,22.68
2022-09-17T10:02:13.807Z,20.04
2022-09-17T10:03:13.795Z,24.48
2022-09-17T10:04:14.285Z,9.64
2022-09-17T10:05:13.203Z,11.68
2022-09-17T10:06:13.181Z,11.76
2022-09-17T10:07:13.791Z,13.32
2022-09-17T10:08:13.700Z,24.84
2022-09-17T10:09:13.771Z,33.64
2022-09-17T10:10:13.969Z,28.68
2022-09-17T10:11:12.823Z,16.80
2022-09-17T10:12:14.275Z,20.12
2022-09-17T10:13:13.216Z,31.48
2022-09-17T10:14:13.501Z,17.64
2022-09-17T10:15:13.546Z,11.80
2022-09-17T10:16:13.915Z,16.96
2022-09-17T10:17:12.929Z,19.40
2022-09-17T10:18:12.805Z,16.80
2022-09-17T10:19:14.209Z,15.24
2022-09-17T10:20:13.325Z,15.52
2022-09-17T10:21:13.232Z,11.40
2022-09-17T10:22:13.146Z,17.60
2022-09-17T10:23:13.143Z,20.92
2022-09-17T10:24:13.124Z,20.24
2022-09-17T10:25:13.077Z,24.32
2022-09-17T10:26:13.726Z,26.64
2022-09-17T10:27:13.912Z,33.88
2022-09-17T10:28:14.301Z,16.44
2022-09-17T10:29:13.194Z,31.92
2022-09-17T10:30:13.140Z,24.40
2022-09-17T10:31:13.041Z,17.20
2022-09-17T10:32:12.999Z,16.72
2022-09-17T10:33:13.040Z,29.96
2022-09-17T10:34:13.180Z,25.28
2022-09-17T10:35:13.129Z,6.08
2022-09-17T10:36:13.187Z,11.84
2022-09-17T10:37:13.411Z,7.16
2022-09-17T10:38:13.704Z,12.52
2022-09-17T10:39:13.799Z,18.28
2022-09-17T10:40:14.140Z,10.80
2022-09-17T10:41:13.253Z,29.44
2022-09-17T10:42:13.374Z,17.48
2022-09-17T10:43:13.281Z,25.08
2022-09-17T10:44:13.317Z,15.72
2022-09-17T10:45:13.372Z,20.20
2022-09-17T10:46:13.711Z,25.96
2022-09-17T10:47:13.880Z,15.80
2022-09-17T10:48:14.328Z,18.08
2022-09-17T10:49:13.286Z,18.88
2022-09-17T10:50:13.396Z,10.16
2022-09-17T10:51:13.266Z,29.76
2022-09-17T10:52:13.168Z,25.92
2022-09-17T10:53:13.572Z,29.80
2022-09-17T10:54:13.783Z,44.16
2022-09-17T10:55:13.834Z,28.88
2022-09-17T10:56:13.740Z,39.72
2022-09-17T10:57:14.124Z,27.00
2022-09-17T10:58:13.046Z,28.28
2022-09-17T10:59:12.927Z,23.08
2022-09-17T11:00:13.223Z,15.12
2022-09-17T11:01:13.494Z,27.80
2022-09-17T11:02:13.784Z,28.64
2022-09-17T11:03:13.865Z,34.84
2022-09-17T11:04:14.513Z,24.20
2022-09-17T11:05:13.671Z,19.36
2022-09-17T11:06:14.634Z,24.12
2022-09-17T11:07:13.654Z,31.84
2022-09-17T11:08:13.701Z,35.68
2022-09-17T11:09:13.753Z,32.56
2022-09-17T11:10:13.607Z,24.28
2022-09-17T11:11:13.750Z,15.40
2022-09-17T11:12:14.142Z,22.44
2022-09-17T11:13:13.068Z,20.28
2022-09-17T11:14:13.231Z,15.28
2022-09-17T11:15:13.529Z,29.20
2022-09-17T11:16:13.574Z,18.17
2022-09-17T11:17:13.520Z,19.40
2022-09-17T11:18:13.566Z,32.60
2022-09-17T11:19:13.642Z,32.64
2022-09-17T11:20:13.604Z,24.12
2022-09-17T11:21:13.513Z,15.24
2022-09-17T11:22:13.407Z,21.60
2022-09-17T11:23:13.871Z,18.64
2022-09-17T11:24:13.917Z,18.88
2022-09-17T11:25:12.742Z,27.63
2022-09-17T11:26:14.115Z,32.56
2022-09-17T11:27:13.109Z,25.40
2022-09-17T11:28:13.115Z,30.32
2022-09-17T11:29:13.228Z,37.56
2022-09-17T11:30:13.211Z,24.28
2022-09-17T11:31:13.190Z,37.40
2022-09-17T11:32:13.125Z,38.08
2022-09-17T11:33:13.078Z,30.00
2022-09-17T11:34:13.070Z,18.56
2022-09-17T11:35:13.149Z,18.20
2022-09-17T11:36:13.056Z,9.64
2022-09-17T11:37:13.095Z,15.20
2022-09-17T11:38:13.285Z,17.96
2022-09-17T11:39:13.323Z,15.88
2022-09-17T11:40:13.713Z,19.96
2022-09-17T11:41:14.949Z,22.28
2022-09-17T11:42:12.752Z,33.60
2022-09-17T11:43:13.645Z,9.44
2022-09-17T11:44:13.928Z,12.96
2022-09-17T11:45:12.847Z,8.56
2022-09-17T11:46:13.905Z,21.64
2022-09-17T11:47:12.862Z,18.72
2022-09-17T11:48:14.093Z,17.80
2022-09-17T11:49:13.295Z,20.36
2022-09-17T11:50:13.387Z,21.88
2022-09-17T11:51:13.555Z,19.12
2022-09-17T11:52:13.721Z,24.92
2022-09-17T11:53:13.782Z,17.72
2022-09-17T11:54:13.758Z,16.12
2022-09-17T11:55:14.325Z,14.24
2022-09-17T11:56:13.419Z,17.32
2022-09-17T11:57:13.364Z,22.48
2022-09-17T11:58:15.558Z,25.12
2022-09-17T11:59:13.793Z,25.04
2022-09-17T12:00:14.163Z,19.08
2022-09-17T12:01:13.020Z,26.00
2022-09-17T12:02:13.306Z,22.80
2022-09-17T12:03:13.427Z,21.12
2022-09-17T12:04:13.459Z,15.56
2022-09-17T12:05:13.837Z,29.36
2022-09-17T12:06:14.029Z,22.48
2022-09-17T12:07:13.026Z,22.00
2022-09-17T12:08:14.871Z,26.80
2022-09-17T12:09:12.985Z,22.00
2022-09-17T12:10:12.984Z,18.12
2022-09-17T12:11:13.151Z,19.84
2022-09-17T12:12:31.713Z,31.40
2022-09-17T12:13:13.263Z,26.64
2022-09-17T12:14:13.576Z,44.28
2022-09-17T12:15:13.707Z,32.20
2022-09-17T12:16:14.030Z,32.04
2022-09-17T12:17:13.359Z,26.12
2022-09-17T12:18:30.997Z,17.64
2022-09-17T12:19:13.228Z,15.52
2022-09-17T12:20:13.494Z,12.92
2022-09-17T12:21:13.580Z,15.48
2022-09-17T12:22:13.524Z,22.00
2022-09-17T12:23:13.533Z,22.44
2022-09-17T12:24:13.553Z,15.96
2022-09-17T12:25:13.591Z,17.16
2022-09-17T12:26:13.808Z,14.84
2022-09-17T12:27:13.915Z,11.08
2022-09-17T12:28:13.185Z,7.28
2022-09-17T12:29:13.223Z,12.16
2022-09-17T12:30:13.415Z,6.48
2022-09-17T12:31:13.722Z,12.36
2022-09-17T12:32:13.750Z,6.20
2022-09-17T12:33:13.680Z,7.92
2022-09-17T12:34:14.085Z,7.12
2022-09-17T12:35:13.250Z,6.04
2022-09-17T12:36:13.237Z,10.08
2022-09-17T12:37:13.515Z,11.28
2022-09-17T12:38:13.767Z,13.20
2022-09-17T12:39:13.723Z,13.04
2022-09-17T12:40:15.126Z,13.56
2022-09-17T12:41:13.360Z,9.04
2022-09-17T12:42:13.202Z,5.60
2022-09-17T12:43:13.245Z,10.40
2022-09-17T12:44:13.409Z,9.60
2022-09-17T12:45:13.609Z,9.16
2022-09-17T12:46:18.859Z,6.76
2022-09-17T12:47:12.805Z,9.48
2022-09-17T12:48:18.911Z,8.60
2022-09-17T12:49:13.188Z,4.44
2022-09-17T12:50:13.327Z,9.88
2022-09-17T12:51:13.427Z,8.68
2022-09-17T12:52:13.473Z,6.40
2022-09-17T12:53:13.447Z,4.92
2022-09-17T12:54:13.495Z,6.72
2022-09-17T12:55:13.690Z,4.08
2022-09-17T12:56:13.742Z,3.16
2022-09-17T12:57:13.520Z,2.40
2022-09-17T12:58:13.491Z,4.44
2022-09-17T12:59:13.668Z,7.40
2022-09-17T13:00:15.063Z,5.88
2022-09-17T13:01:13.453Z,1.32
2022-09-17T13:02:15.312Z,3.92
2022-09-17T13:03:13.672Z,1.52
2022-09-17T13:04:13.922Z,4.60
2022-09-17T13:05:13.120Z,3.40
2022-09-17T13:06:13.284Z,2.56
2022-09-17T13:07:13.387Z,3.40
2022-09-17T13:08:13.637Z,2.00
2022-09-17T13:09:13.883Z,2.92